• Join FlightAware (Why Join?)
  • Login
  • US Flag 
Gobble Gobble! 
04:10PM EST


 

Airport Tracker/Info


-or-


 

Live Flight TrackerFlight Track Log ✈ SWA2520 ✈ 30-Apr-2013 ✈ KSJC - KLAX

Flight Track Log - Related Links

Times and Time Zones

All times are in EDT time to prevent confusion due to time zone crossing. See the SWA2520 flight status page for this flight to view local times or setup timezone preferences in your user account.

Time Position Orientation Groundspeed Altitude Reporting Facility
EDT Latitude Longitude Course Direction KTS MPH feet Rate Location/Type
07:34PM 37.4000 -121.9667 67° East 192 221 3,400  Level Northern Cal TRACON
07:35PM 37.4167 -121.9167 67° East 213 245 5,100 2,400 Climbing Northern Cal TRACON
07:36PM 37.3667 -121.8500 133° Southeast 231 266 8,200 2,700 Climbing Northern Cal TRACON
07:37PM 37.3511 -121.8406 154° Southeast 222 255 8,700 1,980 Climbing Oakland Center
07:38PM 37.2881 -121.7733 140° Southeast 292 336 10,900 2,700 Climbing Oakland Center
07:39PM 37.2156 -121.6919 138° Southeast 339 390 14,200 3,360 Climbing Oakland Center
07:40PM 37.1375 -121.6042 138° Southeast 368 423 17,800 3,540 Climbing Oakland Center
07:41PM 37.0547 -121.5103 138° Southeast 395 455 21,500 3,120 Climbing Oakland Center
07:42PM 36.9711 -121.4122 137° Southeast 408 470 24,200 2,580 Climbing Oakland Center
07:43PM 36.8814 -121.3117 138° Southeast 428 493 26,900 2,760 Climbing Oakland Center
07:44PM 36.7689 -121.1942 140° Southeast 446 513 29,900 2,400 Climbing Oakland Center
07:45PM 36.6719 -121.0883 139° Southeast 459 528 31,900 2,100 Climbing Oakland Center
07:46PM 36.5747 -120.9792 138° Southeast 467 537 34,200 2,040 Climbing Oakland Center
07:47PM 36.4767 -120.8717 139° Southeast 469 540 36,200 1,800 Climbing Oakland Center
07:48PM 36.3794 -120.7633 138° Southeast 468 539 37,900 1,620 Climbing Oakland Center
07:49PM 36.2794 -120.6583 140° Southeast 470 541 39,500 1,500 Climbing Oakland Center
07:50PM 36.1822 -120.5503 138° Southeast 469 540 41,000 720 Climbing Oakland Center
07:51PM 36.0831 -120.4453 139° Southeast 468 539 41,000  Level Oakland Center
07:52PM 35.9858 -120.3403 139° Southeast 464 534 41,000  Level Oakland Center
07:53PM 35.8892 -120.2358 139° Southeast 462 532 41,000  Level Oakland Center
07:54PM 35.7917 -120.1328 139° Southeast 459 528 41,000  Level Oakland Center
07:55PM 35.6758 -120.0075 139° Southeast 458 527 41,000  Level Oakland Center
07:56PM 35.5747 -119.9136 143° Southeast 453 521 41,000  Level Oakland Center
07:57PM 35.4708 -119.8242 145° Southeast 451 519 41,000 -120 Level Oakland Center
07:58PM 35.3669 -119.7356 145° Southeast 452 520 40,800 -600 Descending Oakland Center
07:59PM 35.2631 -119.6472 145° Southeast 453 521 39,800 -1,320 Descending Oakland Center
08:00PM 35.1581 -119.5575 145° Southeast 459 528 38,200 -2,280 Descending Oakland Center
08:01PM 35.0358 -119.4542 145° Southeast 451 519 34,800 -3,180 Descending Los Angeles Center
08:02PM 34.9300 -119.3636 145° Southeast 459 528 31,200 -3,300 Descending Los Angeles Center
08:03PM 34.8247 -119.2736 145° Southeast 462 532 28,000 -2,880 Descending Los Angeles Center
08:04PM 34.7217 -119.1861 145° Southeast 454 522 25,300 -2,880 Descending Los Angeles Center
08:05PM 34.6033 -119.0906 146° Southeast 445 512 22,100 -2,880 Descending Los Angeles Center
08:07PM 34.5092 -119.0072 144° Southeast 419 482 19,400 -2,700 Descending Los Angeles Center
08:08PM 34.4167 -118.9308 146° Southeast 402 463 16,600 -2,160 Descending Los Angeles Center
08:09PM 34.3208 -118.8683 152° Southeast 389 448 15,000 -1,800 Descending Los Angeles Center
08:10PM 34.2219 -118.8317 163° South 370 426 13,000 -1,620 Descending Los Angeles Center
08:11PM 34.1128 -118.7919 163° South 336 387 11,700 -1,440 Descending Los Angeles Center
08:12PM 34.0711 -118.7031 119° Southeast 325 374 10,100 -1,260 Descending Los Angeles Center
08:13PM 34.0442 -118.5939 107° East 316 364 9,100 -1,260 Descending Los Angeles Center
08:14PM 34.0192 -118.4947 107° East 310 357 7,600 -1,260 Descending Los Angeles Center
08:15PM 34.0192 -118.4056 90° East 292 336 6,500 -1,020 Descending Los Angeles Center
08:16PM 34.0272 -118.3167 84° East 273 314 5,500 -1,020 Descending Los Angeles Center
08:17PM 34.0375 -118.2375 81° East 249 287 4,500 -1,020 Descending Los Angeles Center
08:18PM 34.0467 -118.1525 83° East 220 253 3,500 -1,080 Descending Los Angeles Center
08:18PM 34.0500 -118.1167 84° East 207 238 3,000 -660 Descending Southern California TRACON
08:19PM 33.9833 -118.1167 180° South 210 242 2,600 -240 Descending Southern California TRACON
08:20PM 33.9781 -118.1547 261° West 204 235 2,600  Level Los Angeles Center
08:21PM 33.9706 -118.2217 262° West 204 235 2,600 -300 Level Los Angeles Center
08:22PM 33.9642 -118.2850 263° West 198 228 2,000 -780 Descending Los Angeles Center
08:23PM 33.9581 -118.3506 264° West 179 206 1,000 -840 Descending Los Angeles Center
08:24PM 33.9542 -118.3906 263° West 143 165 300 -420 Descending Los Angeles Center
08:25PM 33.9486 -118.4292 260° West 139 160 200 -120 Descending Los Angeles Center
08:27PM 33.9425 -118.4081 90° East  Level Estimated